Mobridge Municipal Airport
KMBG : rendu visible

Aérodrome :











RETROUVEZ-NOUS SUR...

 
LOGIN :

S'inscrire | Disclaimer

   EN    FR    IT 

 









Légende :    VFR   VFR Marginal   IFR   IFR Intensif   IFR Très Intensif
Visi : 
Plafond : 
>= 8 km
>= 3000ft
5 à 8 km
1000 à 3000 ft
1500m à 5 km
500 à 1000 ft
800 à 1500m
200 à 500 ft
< 800m
< 200 ft
Symboles :   Orages  Brouillard  Fortes neiges  Fortes précipitations  Vent > 20 kt






- Altitude de l'aérodrome : 1716 ft


KMBG - Mobridge Municipal

DERNIER METAR :
  • 191552Z AUTO 26003KT 10SM CLR 02/M02 A2984 RMK AO2 SLP120 T00221022

METARs EXPIRÉS :
  • 191452Z AUTO 34004KT 10SM CLR 01/M03 A2982 RMK AO2 SLP113 T00061028 53002
  • 191352Z AUTO 33003KT 10SM CLR M04/M07 A2982 RMK AO2 SLP115 T10441067

TAF KMBG
Valide du 19 à 12h jusqu'au 20 à 12h UTC


191123Z 1912/2012 VRB05KT P6SM BKN250
FM192200 12007KT P6SM SCT250
FM200200 11013KT P6SM BKN100



MET'MAP, la Météo Aéronautique d'un coup d'oeil ! - Copyright ORBIFLY Décembre 2007 - Disclaimer

ORBIFLY MET'MAP TEAM :

Programmation & Développement : Alexandra Zaïnal
Conception & Développement : Baudouin d'Aumeries
Co-Programmation & Développement : Marc-Olivier Méhu
Soutien technique & logistique : Manuel Goepfert

Contact : metmap@orbifly.com




SOURCES & CREDITS :

   NOAA       Earth
Advisory